createdAt,value
2023-01-29T00:01:23.486Z,55.19
2023-01-29T00:03:53.151Z,58.50
2023-01-29T00:06:19.789Z,60.75
2023-01-29T00:08:46.985Z,58.67
2023-01-29T00:11:14.118Z,58.77
2023-01-29T00:13:40.599Z,56.82
2023-01-29T00:16:07.445Z,55.87
2023-01-29T00:18:33.908Z,55.42
2023-01-29T00:21:00.499Z,55.21
2023-01-29T00:23:27.292Z,55.01
2023-01-29T00:25:53.816Z,54.67
2023-01-29T00:28:20.506Z,54.92
2023-01-29T00:30:47.059Z,54.96
2023-01-29T00:33:13.716Z,54.73
2023-01-29T00:35:41.531Z,55.07
2023-01-29T00:38:08.356Z,54.88
2023-01-29T00:40:57.439Z,54.73
2023-01-29T00:43:42.631Z,55.01
2023-01-29T00:46:09.856Z,54.94
2023-01-29T00:48:36.751Z,54.91
2023-01-29T00:51:03.650Z,55.24
2023-01-29T00:53:30.596Z,55.21
2023-01-29T00:55:57.196Z,55.17
2023-01-29T00:58:34.167Z,55.04
2023-01-29T01:01:02.644Z,55.19
2023-01-29T01:03:30.180Z,54.93
2023-01-29T01:06:06.504Z,54.99
2023-01-29T01:08:52.253Z,55.26
2023-01-29T01:11:19.674Z,55.14
2023-01-29T01:13:46.370Z,55.17
2023-01-29T01:16:19.070Z,55.28
2023-01-29T01:18:45.647Z,55.10
2023-01-29T01:21:12.249Z,55.29
2023-01-29T01:23:38.802Z,55.08
2023-01-29T01:26:09.580Z,55.16
2023-01-29T01:28:36.176Z,55.06
2023-01-29T01:31:11.277Z,54.85
2023-01-29T01:33:38.199Z,54.76
2023-01-29T01:36:09.317Z,54.94
2023-01-29T01:38:45.347Z,54.92
2023-01-29T01:41:17.810Z,55.00
2023-01-29T01:44:29.254Z,54.94
2023-01-29T01:46:55.862Z,54.99
2023-01-29T01:49:24.434Z,54.84
2023-01-29T01:51:52.742Z,54.96
2023-01-29T01:54:25.133Z,54.69
2023-01-29T01:57:04.984Z,54.74
2023-01-29T01:59:34.171Z,54.57
2023-01-29T02:02:19.667Z,54.53
2023-01-29T02:05:06.701Z,54.65
2023-01-29T02:07:52.614Z,54.58
2023-01-29T02:10:20.856Z,54.46
2023-01-29T02:12:47.976Z,54.65
2023-01-29T02:15:14.569Z,54.84
2023-01-29T02:17:41.172Z,54.68
2023-01-29T02:20:25.921Z,54.70
2023-01-29T02:23:03.658Z,54.79
2023-01-29T02:25:45.926Z,54.66
2023-01-29T02:28:29.137Z,54.85
2023-01-29T02:31:23.350Z,54.57
2023-01-29T02:34:01.631Z,54.61
2023-01-29T02:36:45.781Z,54.46
2023-01-29T02:39:36.511Z,54.74
2023-01-29T02:42:13.212Z,54.61
2023-01-29T02:44:44.480Z,54.75
2023-01-29T02:47:28.090Z,54.50
2023-01-29T02:50:03.690Z,54.58
2023-01-29T02:52:40.076Z,54.62
2023-01-29T02:55:21.995Z,54.82
2023-01-29T02:57:51.471Z,54.51
2023-01-29T03:00:24.812Z,54.74
2023-01-29T03:03:03.683Z,54.58
2023-01-29T03:06:02.324Z,54.62
2023-01-29T03:08:43.206Z,54.77
2023-01-29T03:11:14.966Z,55.00
2023-01-29T03:13:50.886Z,55.02
2023-01-29T03:16:25.916Z,55.11
2023-01-29T03:18:57.555Z,55.29
2023-01-29T03:21:49.747Z,55.20
2023-01-29T03:24:56.540Z,54.97
2023-01-29T03:27:46.502Z,54.93
2023-01-29T03:30:35.101Z,55.07
2023-01-29T03:33:06.689Z,54.96
2023-01-29T03:35:39.638Z,55.00
2023-01-29T03:38:10.173Z,54.89
2023-01-29T03:40:49.249Z,55.07
2023-01-29T03:43:21.968Z,54.84
2023-01-29T03:45:58.743Z,55.00
2023-01-29T03:48:29.210Z,54.89
2023-01-29T03:51:33.392Z,54.67
2023-01-29T03:54:48.391Z,54.65
2023-01-29T03:57:29.620Z,54.92
2023-01-29T04:00:14.658Z,55.00
2023-01-29T04:02:55.904Z,54.78
2023-01-29T04:05:25.583Z,54.82
2023-01-29T04:07:58.392Z,54.66
2023-01-29T04:10:27.577Z,54.60
2023-01-29T04:12:59.933Z,55.08
2023-01-29T04:15:30.487Z,54.85
2023-01-29T04:17:57.600Z,54.78
2023-01-29T04:20:24.957Z,54.67
2023-01-29T04:22:52.402Z,54.82
2023-01-29T04:25:28.979Z,54.59
2023-01-29T17:43:11.881Z,54.76
2023-01-29T17:45:39.662Z,53.94
2023-01-29T17:48:18.124Z,53.85
2023-01-29T17:50:48.498Z,53.57
2023-01-29T17:53:16.010Z,53.29
2023-01-29T17:55:43.020Z,53.30
2023-01-29T17:58:20.661Z,53.10
2023-01-29T18:00:48.619Z,53.13
2023-01-29T18:03:15.462Z,53.14
2023-01-29T18:05:43.209Z,52.70
2023-01-29T18:08:32.669Z,52.75
2023-01-29T18:11:00.341Z,53.21
2023-01-29T18:13:27.427Z,53.60
2023-01-29T18:15:54.263Z,53.59
2023-01-29T18:18:23.539Z,53.83
2023-01-29T18:20:51.172Z,53.95
2023-01-29T18:23:17.848Z,54.10
2023-01-29T18:25:44.964Z,54.06
2023-01-29T18:28:20.690Z,53.94
2023-01-29T18:30:47.859Z,54.20
2023-01-29T18:33:16.485Z,54.11
2023-01-29T18:35:50.425Z,54.15
2023-01-29T18:38:17.948Z,54.26
2023-01-29T18:40:44.496Z,54.40
2023-01-29T18:43:11.071Z,54.51
2023-01-29T18:45:37.764Z,54.61
2023-01-29T18:48:05.417Z,54.87
2023-01-29T18:50:32.236Z,54.87
2023-01-29T18:52:58.784Z,54.35
2023-01-29T18:55:26.643Z,55.00
2023-01-29T18:58:27.103Z,55.78
2023-01-29T19:00:41.119Z,54.61
2023-01-29T19:03:07.643Z,55.27
2023-01-29T19:05:34.356Z,55.34
2023-01-29T19:08:01.958Z,55.81
2023-01-29T19:10:28.725Z,56.23
2023-01-29T19:12:55.286Z,56.01
2023-01-29T19:15:22.877Z,56.12
2023-01-29T19:17:52.570Z,55.79
2023-01-29T19:20:19.380Z,55.69
2023-01-29T19:22:45.875Z,55.40
2023-01-29T19:25:12.844Z,55.87
2023-01-29T19:27:39.470Z,56.09
2023-01-29T19:30:06.746Z,56.08
2023-01-29T19:32:33.938Z,56.07
2023-01-29T19:35:00.722Z,56.11
2023-01-29T19:37:27.814Z,55.75
2023-01-29T19:39:54.425Z,55.98
2023-01-29T19:42:21.047Z,56.79
2023-01-29T19:44:47.832Z,56.91
2023-01-29T19:47:14.609Z,56.92
2023-01-29T19:49:41.226Z,56.40
2023-01-29T19:52:15.081Z,57.13
2023-01-29T19:54:46.726Z,56.89
2023-01-29T19:57:13.362Z,57.23
2023-01-29T19:59:39.910Z,57.31
2023-01-29T20:02:06.583Z,56.75
2023-01-29T20:04:33.236Z,56.91
2023-01-29T20:06:59.743Z,56.77
2023-01-29T20:09:26.383Z,56.62
2023-01-29T20:11:52.899Z,56.82
2023-01-29T20:14:19.560Z,56.77
2023-01-29T20:16:46.115Z,56.91
2023-01-29T20:19:14.310Z,57.17
2023-01-29T20:21:45.443Z,56.79
2023-01-29T20:24:13.054Z,56.92
2023-01-29T20:26:39.724Z,56.78
2023-01-29T20:29:06.629Z,56.29
2023-01-29T20:31:33.613Z,55.87
2023-01-29T20:34:00.254Z,55.92
2023-01-29T20:36:26.800Z,56.39
2023-01-29T20:38:53.434Z,56.22
2023-01-29T20:41:20.034Z,56.08
2023-01-29T20:43:47.410Z,56.25
2023-01-29T20:46:14.619Z,56.39
2023-01-29T20:48:42.225Z,56.60
2023-01-29T20:51:13.656Z,56.62
2023-01-29T20:53:41.215Z,56.58
2023-01-29T20:56:08.560Z,56.21
2023-01-29T20:58:36.264Z,56.27
2023-01-29T21:01:08.634Z,56.22
2023-01-29T21:03:35.250Z,56.43
2023-01-29T21:06:02.531Z,55.80
2023-01-29T21:08:29.100Z,56.08
2023-01-29T21:10:55.667Z,55.85
2023-01-29T21:13:22.334Z,56.07
2023-01-29T21:15:51.856Z,55.85
2023-01-29T21:18:18.420Z,55.82
2023-01-29T21:20:45.071Z,55.95
2023-01-29T21:23:12.107Z,55.98
2023-01-29T21:25:38.877Z,55.65
2023-01-29T21:28:06.016Z,55.20
2023-01-29T21:30:33.000Z,55.79
2023-01-29T21:32:59.738Z,55.88
2023-01-29T21:35:26.168Z,54.86
2023-01-29T21:37:52.883Z,55.64
2023-01-29T21:40:21.407Z,55.56
2023-01-29T21:43:07.191Z,55.73
2023-01-29T21:45:35.466Z,55.80
2023-01-29T21:48:02.271Z,55.90
2023-01-29T21:50:28.891Z,55.83
2023-01-29T21:52:55.361Z,55.57
2023-01-29T21:55:21.942Z,55.86
2023-01-29T21:57:49.279Z,55.84
2023-01-29T22:00:16.514Z,56.08
2023-01-29T22:02:43.323Z,55.95
2023-01-29T22:05:18.647Z,55.87
2023-01-29T22:07:46.257Z,55.68
2023-01-29T22:10:13.079Z,55.61
2023-01-29T22:12:40.054Z,55.92
2023-01-29T22:15:07.823Z,56.12
2023-01-29T22:17:35.383Z,56.27
2023-01-29T22:20:02.228Z,55.86
2023-01-29T22:22:28.720Z,55.71
2023-01-29T22:24:56.507Z,55.92
2023-01-29T22:27:22.981Z,55.70
2023-01-29T22:29:49.522Z,55.78
2023-01-29T22:32:16.517Z,55.58
2023-01-29T22:34:43.102Z,55.39
2023-01-29T22:37:09.661Z,55.50
2023-01-29T22:39:36.211Z,55.41
2023-01-29T22:42:02.817Z,55.55
2023-01-29T22:44:29.305Z,55.24
2023-01-29T22:46:55.844Z,55.65
2023-01-29T22:49:23.263Z,55.35
2023-01-29T22:52:09.825Z,55.31
2023-01-29T22:54:41.635Z,55.59
2023-01-29T22:57:13.212Z,55.56
2023-01-29T22:59:40.393Z,55.43
2023-01-29T23:02:08.170Z,55.54
2023-01-29T23:04:35.130Z,55.40
2023-01-29T23:07:01.822Z,55.66
2023-01-29T23:09:28.688Z,55.78
2023-01-29T23:11:55.231Z,54.82
2023-01-29T23:14:21.832Z,55.41
2023-01-29T23:16:48.384Z,55.74
2023-01-29T23:19:14.859Z,55.69
2023-01-29T23:21:41.432Z,55.63
2023-01-29T23:24:08.637Z,55.73
2023-01-29T23:26:54.285Z,56.08
2023-01-29T23:29:21.111Z,56.20
2023-01-29T23:31:47.647Z,55.40
2023-01-29T23:34:15.184Z,56.23
2023-01-29T23:36:42.402Z,56.25
2023-01-29T23:39:09.248Z,56.62
2023-01-29T23:41:36.002Z,55.90
2023-01-29T23:44:02.606Z,56.59
2023-01-29T23:46:29.088Z,56.54
2023-01-29T23:48:55.586Z,57.10
2023-01-29T23:51:22.159Z,56.57
2023-01-29T23:53:48.637Z,56.96
2023-01-29T23:56:15.266Z,56.75
2023-01-29T23:58:41.856Z,57.00
